sensor_id;sensor_type;location;lat;lon;timestamp;temperature;humidity
11762;DHT22;5938;47.098;15.474;2023-06-26T00:02:50;14.70;99.90
11762;DHT22;5938;47.098;15.474;2023-06-26T00:06:54;14.60;99.90
11762;DHT22;5938;47.098;15.474;2023-06-26T00:10:58;14.50;99.90
11762;DHT22;5938;47.098;15.474;2023-06-26T00:15:02;14.50;99.90
11762;DHT22;5938;47.098;15.474;2023-06-26T00:19:07;14.40;99.90
11762;DHT22;5938;47.098;15.474;2023-06-26T00:23:15;14.30;99.90
11762;DHT22;5938;47.098;15.474;2023-06-26T00:27:20;14.30;99.90
11762;DHT22;5938;47.098;15.474;2023-06-26T00:31:24;14.20;99.90
11762;DHT22;5938;47.098;15.474;2023-06-26T00:35:29;14.20;99.90
11762;DHT22;5938;47.098;15.474;2023-06-26T00:39:33;14.20;99.90
11762;DHT22;5938;47.098;15.474;2023-06-26T00:43:37;14.20;99.90
11762;DHT22;5938;47.098;15.474;2023-06-26T00:47:41;14.10;99.90
11762;DHT22;5938;47.098;15.474;2023-06-26T00:51:46;14.10;99.90
11762;DHT22;5938;47.098;15.474;2023-06-26T00:55:49;14.00;99.90
11762;DHT22;5938;47.098;15.474;2023-06-26T00:59:53;14.00;99.90
11762;DHT22;5938;47.098;15.474;2023-06-26T01:03:57;13.90;99.90
11762;DHT22;5938;47.098;15.474;2023-06-26T01:08:04;13.90;99.90
11762;DHT22;5938;47.098;15.474;2023-06-26T01:12:08;13.80;99.90
11762;DHT22;5938;47.098;15.474;2023-06-26T01:16:12;13.80;99.90
11762;DHT22;5938;47.098;15.474;2023-06-26T01:20:21;13.80;99.90
11762;DHT22;5938;47.098;15.474;2023-06-26T01:24:33;13.70;99.90
11762;DHT22;5938;47.098;15.474;2023-06-26T01:28:42;13.70;99.90
11762;DHT22;5938;47.098;15.474;2023-06-26T01:32:46;13.70;99.90
11762;DHT22;5938;47.098;15.474;2023-06-26T01:36:51;13.60;99.90
11762;DHT22;5938;47.098;15.474;2023-06-26T01:40:55;13.60;99.90
11762;DHT22;5938;47.098;15.474;2023-06-26T01:45:03;13.60;99.90
11762;DHT22;5938;47.098;15.474;2023-06-26T01:49:13;13.50;99.90
11762;DHT22;5938;47.098;15.474;2023-06-26T01:53:24;13.50;99.90
11762;DHT22;5938;47.098;15.474;2023-06-26T01:57:30;13.40;99.90
11762;DHT22;5938;47.098;15.474;2023-06-26T02:01:36;13.40;99.90
11762;DHT22;5938;47.098;15.474;2023-06-26T02:05:41;13.30;99.90
11762;DHT22;5938;47.098;15.474;2023-06-26T02:09:44;13.20;99.90
11762;DHT22;5938;47.098;15.474;2023-06-26T02:13:48;13.20;99.90
11762;DHT22;5938;47.098;15.474;2023-06-26T02:17:53;13.20;99.90
11762;DHT22;5938;47.098;15.474;2023-06-26T02:21:57;13.30;99.90
11762;DHT22;5938;47.098;15.474;2023-06-26T02:26:00;13.20;99.90
11762;DHT22;5938;47.098;15.474;2023-06-26T02:30:05;13.20;99.90
11762;DHT22;5938;47.098;15.474;2023-06-26T02:34:10;13.20;99.90
11762;DHT22;5938;47.098;15.474;2023-06-26T02:38:14;13.10;99.90
11762;DHT22;5938;47.098;15.474;2023-06-26T02:42:18;13.10;99.90
11762;DHT22;5938;47.098;15.474;2023-06-26T02:46:21;13.10;99.90
11762;DHT22;5938;47.098;15.474;2023-06-26T02:50:27;13.10;99.90
11762;DHT22;5938;47.098;15.474;2023-06-26T02:54:30;13.00;99.90
11762;DHT22;5938;47.098;15.474;2023-06-26T02:58:34;13.00;99.90
11762;DHT22;5938;47.098;15.474;2023-06-26T03:02:38;13.00;99.90
11762;DHT22;5938;47.098;15.474;2023-06-26T03:06:43;13.00;99.90
11762;DHT22;5938;47.098;15.474;2023-06-26T03:10:47;12.90;99.90
11762;DHT22;5938;47.098;15.474;2023-06-26T03:14:51;13.00;99.90
11762;DHT22;5938;47.098;15.474;2023-06-26T03:18:54;13.00;99.90
11762;DHT22;5938;47.098;15.474;2023-06-26T03:22:59;12.90;99.90
11762;DHT22;5938;47.098;15.474;2023-06-26T03:27:03;13.10;99.90
11762;DHT22;5938;47.098;15.474;2023-06-26T03:31:07;13.10;99.90
11762;DHT22;5938;47.098;15.474;2023-06-26T03:35:11;13.10;99.90
11762;DHT22;5938;47.098;15.474;2023-06-26T03:39:16;13.10;99.90
11762;DHT22;5938;47.098;15.474;2023-06-26T03:43:19;13.10;99.90
11762;DHT22;5938;47.098;15.474;2023-06-26T03:47:23;13.10;99.90
11762;DHT22;5938;47.098;15.474;2023-06-26T03:51:26;13.10;99.90
11762;DHT22;5938;47.098;15.474;2023-06-26T03:55:31;13.10;99.90
11762;DHT22;5938;47.098;15.474;2023-06-26T03:59:37;13.20;99.90
11762;DHT22;5938;47.098;15.474;2023-06-26T04:03:41;13.30;99.90
11762;DHT22;5938;47.098;15.474;2023-06-26T04:07:45;13.40;99.90
11762;DHT22;5938;47.098;15.474;2023-06-26T04:11:50;13.50;99.90
11762;DHT22;5938;47.098;15.474;2023-06-26T04:15:54;13.50;99.90
11762;DHT22;5938;47.098;15.474;2023-06-26T04:19:57;13.50;99.90
11762;DHT22;5938;47.098;15.474;2023-06-26T04:24:01;13.70;99.90
11762;DHT22;5938;47.098;15.474;2023-06-26T04:28:06;13.80;99.90
11762;DHT22;5938;47.098;15.474;2023-06-26T04:32:10;13.90;99.90
11762;DHT22;5938;47.098;15.474;2023-06-26T04:36:13;14.00;99.90
11762;DHT22;5938;47.098;15.474;2023-06-26T04:40:18;14.00;99.90
11762;DHT22;5938;47.098;15.474;2023-06-26T04:44:23;14.10;99.90
11762;DHT22;5938;47.098;15.474;2023-06-26T04:48:27;14.20;99.90
11762;DHT22;5938;47.098;15.474;2023-06-26T04:52:33;14.40;99.90
11762;DHT22;5938;47.098;15.474;2023-06-26T04:56:36;14.50;99.90
11762;DHT22;5938;47.098;15.474;2023-06-26T05:00:43;14.70;99.90
11762;DHT22;5938;47.098;15.474;2023-06-26T05:04:47;14.80;99.90
11762;DHT22;5938;47.098;15.474;2023-06-26T05:08:51;15.00;99.90
11762;DHT22;5938;47.098;15.474;2023-06-26T05:12:54;15.10;99.90
11762;DHT22;5938;47.098;15.474;2023-06-26T05:16:59;15.20;99.90
11762;DHT22;5938;47.098;15.474;2023-06-26T05:21:04;15.30;99.90
11762;DHT22;5938;47.098;15.474;2023-06-26T05:25:09;15.50;99.90
11762;DHT22;5938;47.098;15.474;2023-06-26T05:29:14;15.60;99.90
11762;DHT22;5938;47.098;15.474;2023-06-26T05:33:23;15.80;99.90
11762;DHT22;5938;47.098;15.474;2023-06-26T05:37:28;16.00;99.90
11762;DHT22;5938;47.098;15.474;2023-06-26T05:41:33;16.10;99.90
11762;DHT22;5938;47.098;15.474;2023-06-26T05:45:38;16.30;99.90
11762;DHT22;5938;47.098;15.474;2023-06-26T05:49:43;16.50;99.90
11762;DHT22;5938;47.098;15.474;2023-06-26T05:53:47;16.70;99.90
11762;DHT22;5938;47.098;15.474;2023-06-26T05:57:51;16.90;99.90
11762;DHT22;5938;47.098;15.474;2023-06-26T06:01:55;17.00;99.90
11762;DHT22;5938;47.098;15.474;2023-06-26T06:06:01;17.10;99.90
11762;DHT22;5938;47.098;15.474;2023-06-26T06:10:05;17.30;99.90
11762;DHT22;5938;47.098;15.474;2023-06-26T06:14:09;17.50;99.90
11762;DHT22;5938;47.098;15.474;2023-06-26T06:18:13;17.80;99.90
11762;DHT22;5938;47.098;15.474;2023-06-26T06:22:18;18.00;99.90
11762;DHT22;5938;47.098;15.474;2023-06-26T06:26:22;18.10;99.90
11762;DHT22;5938;47.098;15.474;2023-06-26T06:30:26;18.30;99.90
11762;DHT22;5938;47.098;15.474;2023-06-26T06:34:45;18.50;99.90
11762;DHT22;5938;47.098;15.474;2023-06-26T06:38:50;19.00;99.90
11762;DHT22;5938;47.098;15.474;2023-06-26T06:42:58;19.20;99.90
11762;DHT22;5938;47.098;15.474;2023-06-26T06:47:02;19.50;99.90
11762;DHT22;5938;47.098;15.474;2023-06-26T06:51:05;19.70;99.90
11762;DHT22;5938;47.098;15.474;2023-06-26T06:55:12;20.00;99.90
11762;DHT22;5938;47.098;15.474;2023-06-26T06:59:16;20.20;99.90
11762;DHT22;5938;47.098;15.474;2023-06-26T07:03:20;20.40;99.90
11762;DHT22;5938;47.098;15.474;2023-06-26T07:07:29;20.60;99.90
11762;DHT22;5938;47.098;15.474;2023-06-26T07:11:35;20.80;99.90
11762;DHT22;5938;47.098;15.474;2023-06-26T07:15:39;20.90;99.90
11762;DHT22;5938;47.098;15.474;2023-06-26T07:19:43;21.10;99.90
11762;DHT22;5938;47.098;15.474;2023-06-26T07:23:47;21.30;99.90
11762;DHT22;5938;47.098;15.474;2023-06-26T07:27:52;21.40;99.90
11762;DHT22;5938;47.098;15.474;2023-06-26T07:31:55;21.50;99.90
11762;DHT22;5938;47.098;15.474;2023-06-26T07:35:59;21.60;99.90
11762;DHT22;5938;47.098;15.474;2023-06-26T07:40:04;21.80;99.90
11762;DHT22;5938;47.098;15.474;2023-06-26T07:44:10;22.00;99.90
11762;DHT22;5938;47.098;15.474;2023-06-26T07:48:13;22.30;99.90
11762;DHT22;5938;47.098;15.474;2023-06-26T07:52:18;22.40;98.60
11762;DHT22;5938;47.098;15.474;2023-06-26T07:56:22;22.70;99.10
11762;DHT22;5938;47.098;15.474;2023-06-26T08:00:42;22.90;98.80
11762;DHT22;5938;47.098;15.474;2023-06-26T08:04:47;23.10;97.10
11762;DHT22;5938;47.098;15.474;2023-06-26T08:08:51;23.40;96.80
11762;DHT22;5938;47.098;15.474;2023-06-26T08:12:55;23.60;96.90
11762;DHT22;5938;47.098;15.474;2023-06-26T08:17:00;23.70;97.00
11762;DHT22;5938;47.098;15.474;2023-06-26T08:21:04;24.10;97.10
11762;DHT22;5938;47.098;15.474;2023-06-26T08:25:09;24.20;96.70
11762;DHT22;5938;47.098;15.474;2023-06-26T08:29:13;24.20;96.70
11762;DHT22;5938;47.098;15.474;2023-06-26T08:33:19;24.40;96.00
11762;DHT22;5938;47.098;15.474;2023-06-26T08:37:22;24.30;95.60
11762;DHT22;5938;47.098;15.474;2023-06-26T08:41:26;24.70;94.90
11762;DHT22;5938;47.098;15.474;2023-06-26T08:45:30;25.30;94.20
11762;DHT22;5938;47.098;15.474;2023-06-26T08:49:44;25.20;93.40
11762;DHT22;5938;47.098;15.474;2023-06-26T08:53:57;25.60;93.80
11762;DHT22;5938;47.098;15.474;2023-06-26T08:58:01;27.00;92.80
11762;DHT22;5938;47.098;15.474;2023-06-26T09:02:05;30.50;87.90
11762;DHT22;5938;47.098;15.474;2023-06-26T09:06:11;32.30;77.30
11762;DHT22;5938;47.098;15.474;2023-06-26T09:10:15;33.50;75.20
11762;DHT22;5938;47.098;15.474;2023-06-26T09:14:19;34.00;73.50
11762;DHT22;5938;47.098;15.474;2023-06-26T09:18:23;33.60;73.50
11762;DHT22;5938;47.098;15.474;2023-06-26T09:22:28;35.20;70.50
11762;DHT22;5938;47.098;15.474;2023-06-26T09:26:32;35.40;67.30
11762;DHT22;5938;47.098;15.474;2023-06-26T09:30:36;35.50;67.00
11762;DHT22;5938;47.098;15.474;2023-06-26T09:34:42;34.50;66.00
11762;DHT22;5938;47.098;15.474;2023-06-26T09:38:47;34.80;65.60
11762;DHT22;5938;47.098;15.474;2023-06-26T09:42:51;36.20;64.20
11762;DHT22;5938;47.098;15.474;2023-06-26T09:46:55;36.60;61.60
11762;DHT22;5938;47.098;15.474;2023-06-26T09:51:00;36.30;64.40
11762;DHT22;5938;47.098;15.474;2023-06-26T09:55:16;36.30;61.50
11762;DHT22;5938;47.098;15.474;2023-06-26T09:59:23;37.70;61.40
11762;DHT22;5938;47.098;15.474;2023-06-26T10:03:27;37.10;61.10
11762;DHT22;5938;47.098;15.474;2023-06-26T10:07:31;36.50;61.50
11762;DHT22;5938;47.098;15.474;2023-06-26T10:11:40;35.90;60.50
11762;DHT22;5938;47.098;15.474;2023-06-26T10:15:45;36.50;59.50
11762;DHT22;5938;47.098;15.474;2023-06-26T10:19:50;36.70;59.10
11762;DHT22;5938;47.098;15.474;2023-06-26T10:23:57;37.20;61.50
11762;DHT22;5938;47.098;15.474;2023-06-26T10:28:03;37.90;58.30
11762;DHT22;5938;47.098;15.474;2023-06-26T10:32:10;38.70;59.40
11762;DHT22;5938;47.098;15.474;2023-06-26T10:36:16;37.80;58.30
11762;DHT22;5938;47.098;15.474;2023-06-26T10:40:26;37.50;56.60
11762;DHT22;5938;47.098;15.474;2023-06-26T10:44:40;37.60;56.70
11762;DHT22;5938;47.098;15.474;2023-06-26T10:48:56;36.70;60.90
11762;DHT22;5938;47.098;15.474;2023-06-26T10:53:09;38.40;57.90
11762;DHT22;5938;47.098;15.474;2023-06-26T10:57:23;38.10;56.40
11762;DHT22;5938;47.098;15.474;2023-06-26T11:01:29;37.80;55.50
11762;DHT22;5938;47.098;15.474;2023-06-26T11:05:33;35.20;59.70
11762;DHT22;5938;47.098;15.474;2023-06-26T11:09:57;33.80;61.30
11762;DHT22;5938;47.098;15.474;2023-06-26T11:14:01;33.00;69.80
11762;DHT22;5938;47.098;15.474;2023-06-26T11:18:07;34.20;61.20
11762;DHT22;5938;47.098;15.474;2023-06-26T11:22:12;34.50;61.40
11762;DHT22;5938;47.098;15.474;2023-06-26T11:26:18;35.80;60.10
11762;DHT22;5938;47.098;15.474;2023-06-26T11:30:24;37.40;54.40
11762;DHT22;5938;47.098;15.474;2023-06-26T11:34:50;36.50;60.60
11762;DHT22;5938;47.098;15.474;2023-06-26T11:38:55;33.90;65.40
11762;DHT22;5938;47.098;15.474;2023-06-26T11:42:59;32.30;71.50
11762;DHT22;5938;47.098;15.474;2023-06-26T11:47:04;31.60;75.00
11762;DHT22;5938;47.098;15.474;2023-06-26T11:51:12;31.30;76.80
11762;DHT22;5938;47.098;15.474;2023-06-26T11:55:16;31.40;75.70
11762;DHT22;5938;47.098;15.474;2023-06-26T11:59:21;32.80;72.30
11762;DHT22;5938;47.098;15.474;2023-06-26T12:03:25;34.70;66.30
11762;DHT22;5938;47.098;15.474;2023-06-26T12:07:31;36.90;61.90
11762;DHT22;5938;47.098;15.474;2023-06-26T12:11:35;37.50;62.30
11762;DHT22;5938;47.098;15.474;2023-06-26T12:15:40;36.10;63.90
11762;DHT22;5938;47.098;15.474;2023-06-26T12:19:45;34.40;65.80
11762;DHT22;5938;47.098;15.474;2023-06-26T12:23:58;33.20;68.20
11762;DHT22;5938;47.098;15.474;2023-06-26T12:28:15;33.00;71.00
11762;DHT22;5938;47.098;15.474;2023-06-26T12:32:22;32.40;71.30
11762;DHT22;5938;47.098;15.474;2023-06-26T12:36:26;34.00;67.30
11762;DHT22;5938;47.098;15.474;2023-06-26T12:40:32;35.80;63.80
11762;DHT22;5938;47.098;15.474;2023-06-26T12:44:36;38.70;63.10
11762;DHT22;5938;47.098;15.474;2023-06-26T12:48:41;39.10;56.70
11762;DHT22;5938;47.098;15.474;2023-06-26T12:52:48;40.10;56.30
11762;DHT22;5938;47.098;15.474;2023-06-26T12:56:53;40.60;55.70
11762;DHT22;5938;47.098;15.474;2023-06-26T13:00:57;40.80;53.10
11762;DHT22;5938;47.098;15.474;2023-06-26T13:05:01;39.40;57.90
11762;DHT22;5938;47.098;15.474;2023-06-26T13:09:05;40.80;56.60
11762;DHT22;5938;47.098;15.474;2023-06-26T13:13:11;40.50;55.20
11762;DHT22;5938;47.098;15.474;2023-06-26T13:17:14;40.60;54.70
11762;DHT22;5938;47.098;15.474;2023-06-26T13:21:18;38.50;57.30
11762;DHT22;5938;47.098;15.474;2023-06-26T13:25:22;39.30;57.80
11762;DHT22;5938;47.098;15.474;2023-06-26T13:29:27;40.10;52.70
11762;DHT22;5938;47.098;15.474;2023-06-26T13:33:31;41.30;53.50
11762;DHT22;5938;47.098;15.474;2023-06-26T13:37:35;42.60;50.70
11762;DHT22;5938;47.098;15.474;2023-06-26T13:41:40;43.60;47.60
11762;DHT22;5938;47.098;15.474;2023-06-26T13:45:45;44.20;48.70
11762;DHT22;5938;47.098;15.474;2023-06-26T13:49:48;42.90;48.80
11762;DHT22;5938;47.098;15.474;2023-06-26T13:53:52;42.50;49.20
11762;DHT22;5938;47.098;15.474;2023-06-26T13:57:57;43.60;47.20
11762;DHT22;5938;47.098;15.474;2023-06-26T14:02:02;42.40;48.50
11762;DHT22;5938;47.098;15.474;2023-06-26T14:06:07;43.10;49.00
11762;DHT22;5938;47.098;15.474;2023-06-26T14:10:11;41.30;52.50
11762;DHT22;5938;47.098;15.474;2023-06-26T14:14:14;42.40;48.50
11762;DHT22;5938;47.098;15.474;2023-06-26T14:18:20;43.30;49.10
11762;DHT22;5938;47.098;15.474;2023-06-26T14:22:26;42.60;51.30
11762;DHT22;5938;47.098;15.474;2023-06-26T14:26:30;42.20;48.40
11762;DHT22;5938;47.098;15.474;2023-06-26T14:30:35;43.90;47.30
11762;DHT22;5938;47.098;15.474;2023-06-26T14:34:41;43.10;49.00
11762;DHT22;5938;47.098;15.474;2023-06-26T14:38:45;41.30;51.20
11762;DHT22;5938;47.098;15.474;2023-06-26T14:42:49;42.60;48.60
11762;DHT22;5938;47.098;15.474;2023-06-26T14:46:55;40.60;50.10
11762;DHT22;5938;47.098;15.474;2023-06-26T14:51:00;40.70;50.30
11762;DHT22;5938;47.098;15.474;2023-06-26T14:55:05;41.60;50.50
11762;DHT22;5938;47.098;15.474;2023-06-26T14:59:09;42.00;52.20
11762;DHT22;5938;47.098;15.474;2023-06-26T15:03:13;41.80;49.90
11762;DHT22;5938;47.098;15.474;2023-06-26T15:07:19;41.70;49.30
11762;DHT22;5938;47.098;15.474;2023-06-26T15:11:23;41.80;50.40
11762;DHT22;5938;47.098;15.474;2023-06-26T15:15:31;42.90;48.80
11762;DHT22;5938;47.098;15.474;2023-06-26T15:19:36;40.80;50.50
11762;DHT22;5938;47.098;15.474;2023-06-26T15:23:41;40.60;52.60
11762;DHT22;5938;47.098;15.474;2023-06-26T15:27:45;39.70;53.40
11762;DHT22;5938;47.098;15.474;2023-06-26T15:31:48;38.10;57.00
11762;DHT22;5938;47.098;15.474;2023-06-26T15:35:53;39.30;54.60
11762;DHT22;5938;47.098;15.474;2023-06-26T15:39:57;39.50;55.00
11762;DHT22;5938;47.098;15.474;2023-06-26T15:44:01;39.90;53.10
11762;DHT22;5938;47.098;15.474;2023-06-26T15:48:05;40.00;53.50
11762;DHT22;5938;47.098;15.474;2023-06-26T15:52:09;40.30;54.50
11762;DHT22;5938;47.098;15.474;2023-06-26T15:56:14;38.90;54.50
11762;DHT22;5938;47.098;15.474;2023-06-26T16:00:19;37.30;60.00
11762;DHT22;5938;47.098;15.474;2023-06-26T16:04:23;38.20;58.20
11762;DHT22;5938;47.098;15.474;2023-06-26T16:08:27;38.60;57.30
11762;DHT22;5938;47.098;15.474;2023-06-26T16:12:32;37.90;56.50
11762;DHT22;5938;47.098;15.474;2023-06-26T16:16:36;36.10;60.80
11762;DHT22;5938;47.098;15.474;2023-06-26T16:20:39;33.60;68.20
11762;DHT22;5938;47.098;15.474;2023-06-26T16:24:49;32.10;69.80
11762;DHT22;5938;47.098;15.474;2023-06-26T16:28:54;30.70;72.70
11762;DHT22;5938;47.098;15.474;2023-06-26T16:32:58;30.10;76.90
11762;DHT22;5938;47.098;15.474;2023-06-26T16:37:04;29.60;80.20
11762;DHT22;5938;47.098;15.474;2023-06-26T16:41:10;29.20;80.30
11762;DHT22;5938;47.098;15.474;2023-06-26T16:45:15;29.20;78.70
11762;DHT22;5938;47.098;15.474;2023-06-26T16:49:19;29.10;80.30
11762;DHT22;5938;47.098;15.474;2023-06-26T16:53:23;29.60;81.50
11762;DHT22;5938;47.098;15.474;2023-06-26T16:57:27;30.00;78.00
11762;DHT22;5938;47.098;15.474;2023-06-26T17:01:32;30.90;77.10
11762;DHT22;5938;47.098;15.474;2023-06-26T17:05:36;32.50;74.00
11762;DHT22;5938;47.098;15.474;2023-06-26T17:09:41;33.20;70.60
11762;DHT22;5938;47.098;15.474;2023-06-26T17:13:45;33.40;68.60
11762;DHT22;5938;47.098;15.474;2023-06-26T17:17:50;33.40;70.80
11762;DHT22;5938;47.098;15.474;2023-06-26T17:21:54;33.40;72.40
11762;DHT22;5938;47.098;15.474;2023-06-26T17:25:58;32.10;75.40
11762;DHT22;5938;47.098;15.474;2023-06-26T17:30:06;30.30;76.60
11762;DHT22;5938;47.098;15.474;2023-06-26T17:34:12;28.90;81.10
11762;DHT22;5938;47.098;15.474;2023-06-26T17:38:15;27.90;85.60
11762;DHT22;5938;47.098;15.474;2023-06-26T17:42:19;27.10;88.00
11762;DHT22;5938;47.098;15.474;2023-06-26T17:46:23;26.50;90.90
11762;DHT22;5938;47.098;15.474;2023-06-26T17:50:29;25.90;91.00
11762;DHT22;5938;47.098;15.474;2023-06-26T17:54:32;25.60;92.80
11762;DHT22;5938;47.098;15.474;2023-06-26T17:58:36;25.30;94.30
11762;DHT22;5938;47.098;15.474;2023-06-26T18:02:42;25.00;94.90
11762;DHT22;5938;47.098;15.474;2023-06-26T18:06:48;24.60;96.10
11762;DHT22;5938;47.098;15.474;2023-06-26T18:10:52;24.50;97.30
11762;DHT22;5938;47.098;15.474;2023-06-26T18:14:56;24.30;98.40
11762;DHT22;5938;47.098;15.474;2023-06-26T18:19:01;24.00;98.90
11762;DHT22;5938;47.098;15.474;2023-06-26T18:23:06;23.80;99.80
11762;DHT22;5938;47.098;15.474;2023-06-26T18:27:12;23.60;99.90
11762;DHT22;5938;47.098;15.474;2023-06-26T18:31:16;23.40;99.90
11762;DHT22;5938;47.098;15.474;2023-06-26T18:35:20;23.20;99.90
11762;DHT22;5938;47.098;15.474;2023-06-26T18:39:28;22.90;99.90
11762;DHT22;5938;47.098;15.474;2023-06-26T18:43:34;22.70;99.90
11762;DHT22;5938;47.098;15.474;2023-06-26T18:47:39;22.40;99.90
11762;DHT22;5938;47.098;15.474;2023-06-26T18:51:43;22.20;99.90
11762;DHT22;5938;47.098;15.474;2023-06-26T18:55:49;22.00;99.90
11762;DHT22;5938;47.098;15.474;2023-06-26T18:59:54;21.70;99.90
11762;DHT22;5938;47.098;15.474;2023-06-26T19:04:00;21.50;99.90
11762;DHT22;5938;47.098;15.474;2023-06-26T19:08:05;21.30;99.90
11762;DHT22;5938;47.098;15.474;2023-06-26T19:12:12;21.20;99.90
11762;DHT22;5938;47.098;15.474;2023-06-26T19:16:16;21.00;99.90
11762;DHT22;5938;47.098;15.474;2023-06-26T19:20:20;20.80;99.90
11762;DHT22;5938;47.098;15.474;2023-06-26T19:24:23;20.70;99.90
11762;DHT22;5938;47.098;15.474;2023-06-26T19:28:29;20.50;99.90
11762;DHT22;5938;47.098;15.474;2023-06-26T19:32:32;20.40;99.90
11762;DHT22;5938;47.098;15.474;2023-06-26T19:36:37;20.30;99.90
11762;DHT22;5938;47.098;15.474;2023-06-26T19:40:42;20.20;99.90
11762;DHT22;5938;47.098;15.474;2023-06-26T19:44:48;20.00;99.90
11762;DHT22;5938;47.098;15.474;2023-06-26T19:48:52;19.90;99.90
11762;DHT22;5938;47.098;15.474;2023-06-26T19:52:56;19.80;99.90
11762;DHT22;5938;47.098;15.474;2023-06-26T19:57:01;19.70;99.90
11762;DHT22;5938;47.098;15.474;2023-06-26T20:01:08;19.60;99.90
11762;DHT22;5938;47.098;15.474;2023-06-26T20:05:14;19.50;99.90
11762;DHT22;5938;47.098;15.474;2023-06-26T20:09:19;19.40;99.90
11762;DHT22;5938;47.098;15.474;2023-06-26T20:13:28;19.30;99.90
11762;DHT22;5938;47.098;15.474;2023-06-26T20:17:33;19.20;99.90
11762;DHT22;5938;47.098;15.474;2023-06-26T20:21:37;19.10;99.90
11762;DHT22;5938;47.098;15.474;2023-06-26T20:25:41;19.00;99.90
11762;DHT22;5938;47.098;15.474;2023-06-26T20:29:45;19.00;99.90
11762;DHT22;5938;47.098;15.474;2023-06-26T20:33:51;18.90;99.90
11762;DHT22;5938;47.098;15.474;2023-06-26T20:37:56;18.90;99.90
11762;DHT22;5938;47.098;15.474;2023-06-26T20:42:01;18.80;99.90
11762;DHT22;5938;47.098;15.474;2023-06-26T20:46:06;18.70;99.90
11762;DHT22;5938;47.098;15.474;2023-06-26T20:50:13;18.60;99.90
11762;DHT22;5938;47.098;15.474;2023-06-26T20:54:19;18.60;99.90
11762;DHT22;5938;47.098;15.474;2023-06-26T20:58:22;18.50;99.90
11762;DHT22;5938;47.098;15.474;2023-06-26T21:02:26;18.40;99.90
11762;DHT22;5938;47.098;15.474;2023-06-26T21:06:32;18.30;99.90
11762;DHT22;5938;47.098;15.474;2023-06-26T21:10:36;18.20;99.90
11762;DHT22;5938;47.098;15.474;2023-06-26T21:14:39;18.20;99.90
11762;DHT22;5938;47.098;15.474;2023-06-26T21:18:43;18.10;99.90
11762;DHT22;5938;47.098;15.474;2023-06-26T21:22:48;18.10;99.90
11762;DHT22;5938;47.098;15.474;2023-06-26T21:26:52;18.00;99.90
11762;DHT22;5938;47.098;15.474;2023-06-26T21:30:55;18.00;99.90
11762;DHT22;5938;47.098;15.474;2023-06-26T21:34:59;17.90;99.90
11762;DHT22;5938;47.098;15.474;2023-06-26T21:39:05;17.90;99.90
11762;DHT22;5938;47.098;15.474;2023-06-26T21:43:08;17.80;99.90
11762;DHT22;5938;47.098;15.474;2023-06-26T21:47:18;17.80;99.90
11762;DHT22;5938;47.098;15.474;2023-06-26T21:51:22;17.80;99.90
11762;DHT22;5938;47.098;15.474;2023-06-26T21:55:27;17.80;99.90
11762;DHT22;5938;47.098;15.474;2023-06-26T21:59:30;17.80;99.90
11762;DHT22;5938;47.098;15.474;2023-06-26T22:03:34;17.80;99.90
11762;DHT22;5938;47.098;15.474;2023-06-26T22:07:38;17.80;99.90
11762;DHT22;5938;47.098;15.474;2023-06-26T22:11:58;17.80;99.90
11762;DHT22;5938;47.098;15.474;2023-06-26T22:16:02;17.80;99.90
11762;DHT22;5938;47.098;15.474;2023-06-26T22:20:06;17.90;99.90
11762;DHT22;5938;47.098;15.474;2023-06-26T22:24:11;17.90;99.90
11762;DHT22;5938;47.098;15.474;2023-06-26T22:28:18;17.80;99.90
11762;DHT22;5938;47.098;15.474;2023-06-26T22:32:21;17.80;99.90
11762;DHT22;5938;47.098;15.474;2023-06-26T22:36:25;17.80;99.90
11762;DHT22;5938;47.098;15.474;2023-06-26T22:40:29;17.80;99.90
11762;DHT22;5938;47.098;15.474;2023-06-26T22:44:34;17.80;99.90
11762;DHT22;5938;47.098;15.474;2023-06-26T22:48:43;17.80;99.90
11762;DHT22;5938;47.098;15.474;2023-06-26T22:52:47;17.80;99.90
11762;DHT22;5938;47.098;15.474;2023-06-26T22:56:51;17.80;99.90
11762;DHT22;5938;47.098;15.474;2023-06-26T23:00:58;17.80;99.90
11762;DHT22;5938;47.098;15.474;2023-06-26T23:05:03;17.80;99.90
11762;DHT22;5938;47.098;15.474;2023-06-26T23:09:09;17.80;99.90
11762;DHT22;5938;47.098;15.474;2023-06-26T23:13:13;17.80;99.90
11762;DHT22;5938;47.098;15.474;2023-06-26T23:17:18;17.80;99.90
11762;DHT22;5938;47.098;15.474;2023-06-26T23:21:22;17.80;99.90
11762;DHT22;5938;47.098;15.474;2023-06-26T23:25:27;17.80;99.90
11762;DHT22;5938;47.098;15.474;2023-06-26T23:29:36;17.90;99.90
11762;DHT22;5938;47.098;15.474;2023-06-26T23:33:41;18.00;99.90
11762;DHT22;5938;47.098;15.474;2023-06-26T23:37:44;18.10;99.90
11762;DHT22;5938;47.098;15.474;2023-06-26T23:41:56;18.10;99.90
11762;DHT22;5938;47.098;15.474;2023-06-26T23:45:59;18.10;99.90
11762;DHT22;5938;47.098;15.474;2023-06-26T23:50:06;18.10;99.90
11762;DHT22;5938;47.098;15.474;2023-06-26T23:54:10;18.10;99.90
11762;DHT22;5938;47.098;15.474;2023-06-26T23:58:18;18.20;99.90
